»·PEaware :: INDIE33 KSFO-KSBA

INDIE33 :: KSFO-KSBA

FLIGHT INFORMATION

Flight Status: Arrived
Operator: Unknown
More flights by this operator :: More flights under this callsign
Pilot: Indie I. (23354)
Aircraft: BEECH AIRCRAFT T-6A TEXAN
(TEX2)
More flights by this aircraft type
Origin: KSFO San Francisco Intl
United States
Destination: KSBA Santa Barbara Mun
United States
More flights between these airports :: More routes between these airports
Route: +GAPP7 OSI V25 RZS GVO
File this flight plan on PilotEdge
Remarks: Request ILS OR LOC RWY 07
Altitude:
(Current/Filed)
13,000ft
Speed:
(Current/Filed)
250kts
Departed: 03-Sep-19 11:09 AM
Arrived: 03-Sep-19 12:09 PM
Distance/Time
Traveled:
227nm/1:00
Distance/Time
To Go:
Arrived

Flight Plot

Page will automatically refresh every two minutes.

Flight plan parsing failed; only flown route is shown


Map Options




Map Legend


Flown Route
Filed Route
Departure Airport
Arrival Airport
Navaid (VOR, NDB)
Fix

Horizontal Profiles

Position Reports

Time Latitude Longitude Heading Altitude Ground
Speed
03-Sep-19 10:44 37.628506 -122.386343 18 18ft 0kts
03-Sep-19 10:45 37.628510 -122.386341 18 18ft 0kts
03-Sep-19 10:46 37.628514 -122.386339 18 18ft 0kts
03-Sep-19 10:47 37.628518 -122.386338 18 18ft 0kts
03-Sep-19 10:48 37.628522 -122.386336 18 18ft 0kts
03-Sep-19 10:49 37.628526 -122.386334 18 18ft 0kts
03-Sep-19 10:50 37.628530 -122.386333 17 18ft 0kts
03-Sep-19 10:51 37.628534 -122.386331 17 18ft 0kts
03-Sep-19 10:52 37.628538 -122.386330 17 18ft 0kts
03-Sep-19 10:53 37.628542 -122.386328 17 18ft 0kts
03-Sep-19 10:54 37.628546 -122.386326 17 18ft 0kts
03-Sep-19 10:55 37.628550 -122.386325 17 18ft 0kts
03-Sep-19 10:56 37.628554 -122.386323 17 18ft 0kts
03-Sep-19 10:57 37.627560 -122.385309 132 18ft 7kts
03-Sep-19 10:58 37.625778 -122.382638 119 18ft 18kts
03-Sep-19 10:59 37.623452 -122.382043 207 18ft 10kts
03-Sep-19 11:00 37.620540 -122.383478 194 18ft 14kts
03-Sep-19 11:01 37.618174 -122.379980 163 18ft 0kts
03-Sep-19 11:02 37.616513 -122.379775 204 18ft 0kts
03-Sep-19 11:03 37.611502 -122.383071 211 18ft 27kts
03-Sep-19 11:04 37.607557 -122.384454 155 18ft 3kts
03-Sep-19 11:05 37.605215 -122.382293 102 18ft 9kts
03-Sep-19 11:06 37.606006 -122.381252 25 18ft 0kts
03-Sep-19 11:07 37.606437 -122.380960 26 18ft 26kts
03-Sep-19 11:08 37.636721 -122.362718 7 793ft 190kts
03-Sep-19 11:09 37.689294 -122.362724 11 3792ft 185kts
03-Sep-19 11:10 37.712121 -122.308480 114 6267ft 204kts
03-Sep-19 11:11 37.682408 -122.256085 156 10307ft 185kts
03-Sep-19 11:12 37.630223 -122.243001 183 13011ft 236kts
03-Sep-19 11:14 37.553407 -122.250929 187 12951ft 299kts
03-Sep-19 11:15 37.471088 -122.270517 188 13099ft 305kts
03-Sep-19 11:16 37.391699 -122.279536 183 13097ft 282kts
03-Sep-19 11:17 37.319485 -122.246004 152 13060ft 286kts
03-Sep-19 11:18 37.246190 -122.198602 154 13401ft 293kts
03-Sep-19 11:19 37.169691 -122.151905 153 13006ft 311kts
03-Sep-19 11:20 37.092873 -122.104836 154 12874ft 312kts
03-Sep-19 11:21 37.015493 -122.060831 160 13060ft 305kts
03-Sep-19 11:22 36.939556 -122.019233 136 13074ft 312kts
03-Sep-19 11:23 36.887637 -121.934819 124 13188ft 306kts
03-Sep-19 11:24 36.838795 -121.849680 126 13532ft 307kts
03-Sep-19 11:25 36.788575 -121.768193 126 14218ft 300kts
03-Sep-19 11:26 36.735260 -121.679427 127 12954ft 292kts
03-Sep-19 11:27 36.694277 -121.615989 130 12923ft 196kts
03-Sep-19 11:28 36.649545 -121.582469 168 13367ft 229kts
03-Sep-19 11:29 36.588442 -121.530906 131 13278ft 303kts
03-Sep-19 11:30 36.529631 -121.455305 137 13468ft 307kts
03-Sep-19 11:31 36.463653 -121.386100 142 13026ft 310kts
03-Sep-19 11:32 36.396145 -121.321608 142 12855ft 305kts
03-Sep-19 11:33 36.327299 -121.258828 144 12741ft 309kts
03-Sep-19 11:33 36.270844 -121.205684 142 12947ft 303kts
03-Sep-19 11:35 36.195358 -121.126286 139 12903ft 308kts
03-Sep-19 11:36 36.130666 -121.058697 139 13425ft 295kts
03-Sep-19 11:36 36.076570 -121.001188 140 13125ft 305kts
03-Sep-19 11:37 36.011749 -120.931706 139 12976ft 312kts
03-Sep-19 11:39 35.930097 -120.858711 146 13116ft 305kts
03-Sep-19 11:39 35.870025 -120.810325 147 12938ft 311kts
03-Sep-19 11:40 35.797911 -120.752355 145 12903ft 312kts
03-Sep-19 11:41 35.732355 -120.686321 136 13181ft 314kts
03-Sep-19 11:42 35.662910 -120.620828 158 12958ft 310kts
03-Sep-19 11:43 35.589213 -120.567904 146 13440ft 298kts
03-Sep-19 11:44 35.519684 -120.507864 148 13974ft 295kts
03-Sep-19 11:45 35.445328 -120.450970 148 12898ft 323kts
03-Sep-19 11:46 35.369304 -120.395545 150 11347ft 274kts
03-Sep-19 11:47 35.309770 -120.355218 151 10129ft 248kts
03-Sep-19 11:48 35.244626 -120.308779 150 9445ft 287kts
03-Sep-19 11:49 35.178965 -120.264747 152 9520ft 249kts
03-Sep-19 11:50 35.114431 -120.220005 154 9089ft 269kts
03-Sep-19 11:51 35.041900 -120.201705 175 9231ft 279kts
03-Sep-19 11:52 34.965278 -120.191473 171 9066ft 279kts
03-Sep-19 11:53 34.888660 -120.179594 174 9212ft 263kts
03-Sep-19 11:54 34.813147 -120.169538 172 8192ft 280kts
03-Sep-19 11:55 34.738105 -120.182827 191 5104ft 272kts
03-Sep-19 11:56 34.668062 -120.201321 192 5077ft 240kts
03-Sep-19 11:57 34.603507 -120.218058 192 5112ft 233kts
03-Sep-19 11:58 34.538460 -120.234719 192 5016ft 247kts
03-Sep-19 11:59 34.470842 -120.250356 180 3732ft 224kts
03-Sep-19 12:00 34.432566 -120.210228 101 3923ft 196kts
03-Sep-19 12:01 34.419460 -120.142256 94 3440ft 201kts
03-Sep-19 12:02 34.422552 -120.078217 87 3522ft 186kts
03-Sep-19 12:03 34.424141 -120.011453 88 2504ft 189kts
03-Sep-19 12:04 34.425633 -119.952752 89 1759ft 126kts
03-Sep-19 12:05 34.426506 -119.913352 88 1016ft 113kts
03-Sep-19 12:06 34.427255 -119.871453 88 352ft 125kts
03-Sep-19 12:07 34.427970 -119.836513 90 15ft 45kts
03-Sep-19 12:08 34.431667 -119.835346 352 15ft 14kts
03-Sep-19 12:09 34.433068 -119.834550 95 15ft 0kts

Navigation Log

Ident Type
Flight plan parsing failed, navigation log unavailable